sensor_id;sensor_type;location;lat;lon;timestamp;P1;durP1;ratioP1;P2;durP2;ratioP2
21601;SDS011;10963;50.934;4.668;2022-10-22T00:02:21;11.97;;;3.83;;
21601;SDS011;10963;50.934;4.668;2022-10-22T00:04:47;9.73;;;3.27;;
21601;SDS011;10963;50.934;4.668;2022-10-22T00:07:14;12.17;;;3.27;;
21601;SDS011;10963;50.934;4.668;2022-10-22T00:09:43;8.87;;;3.47;;
21601;SDS011;10963;50.934;4.668;2022-10-22T00:12:10;12.80;;;3.03;;
21601;SDS011;10963;50.934;4.668;2022-10-22T00:14:36;9.37;;;3.20;;
21601;SDS011;10963;50.934;4.668;2022-10-22T00:17:04;11.47;;;3.43;;
21601;SDS011;10963;50.934;4.668;2022-10-22T00:19:32;10.67;;;3.20;;
21601;SDS011;10963;50.934;4.668;2022-10-22T00:21:58;8.10;;;3.30;;
21601;SDS011;10963;50.934;4.668;2022-10-22T00:24:23;7.97;;;2.70;;
21601;SDS011;10963;50.934;4.668;2022-10-22T00:26:50;12.57;;;3.37;;
21601;SDS011;10963;50.934;4.668;2022-10-22T00:29:16;6.83;;;2.93;;
21601;SDS011;10963;50.934;4.668;2022-10-22T00:31:45;9.13;;;3.17;;
21601;SDS011;10963;50.934;4.668;2022-10-22T00:34:20;8.73;;;3.20;;
21601;SDS011;10963;50.934;4.668;2022-10-22T00:36:47;8.30;;;3.07;;
21601;SDS011;10963;50.934;4.668;2022-10-22T00:39:17;13.83;;;3.27;;
21601;SDS011;10963;50.934;4.668;2022-10-22T00:41:44;7.97;;;2.67;;
21601;SDS011;10963;50.934;4.668;2022-10-22T00:47:17;13.50;;;3.37;;
21601;SDS011;10963;50.934;4.668;2022-10-22T00:49:44;11.33;;;3.63;;
21601;SDS011;10963;50.934;4.668;2022-10-22T00:52:13;10.87;;;3.33;;
21601;SDS011;10963;50.934;4.668;2022-10-22T00:54:41;8.07;;;3.23;;
21601;SDS011;10963;50.934;4.668;2022-10-22T00:57:07;9.80;;;3.60;;
21601;SDS011;10963;50.934;4.668;2022-10-22T00:59:36;10.10;;;3.37;;
21601;SDS011;10963;50.934;4.668;2022-10-22T01:02:05;10.27;;;3.30;;
21601;SDS011;10963;50.934;4.668;2022-10-22T01:04:31;10.27;;;3.70;;
21601;SDS011;10963;50.934;4.668;2022-10-22T01:07:02;13.80;;;4.03;;
21601;SDS011;10963;50.934;4.668;2022-10-22T01:14:46;10.07;;;3.40;;
21601;SDS011;10963;50.934;4.668;2022-10-22T01:17:18;12.30;;;3.70;;
21601;SDS011;10963;50.934;4.668;2022-10-22T01:22:43;8.57;;;4.00;;
21601;SDS011;10963;50.934;4.668;2022-10-22T01:31:01;12.43;;;3.57;;
21601;SDS011;10963;50.934;4.668;2022-10-22T01:33:28;11.60;;;3.60;;
21601;SDS011;10963;50.934;4.668;2022-10-22T01:35:58;16.50;;;3.13;;
21601;SDS011;10963;50.934;4.668;2022-10-22T01:38:24;8.13;;;3.47;;
21601;SDS011;10963;50.934;4.668;2022-10-22T01:40:51;8.30;;;3.80;;
21601;SDS011;10963;50.934;4.668;2022-10-22T01:43:17;8.70;;;3.23;;
21601;SDS011;10963;50.934;4.668;2022-10-22T01:45:54;8.47;;;3.40;;
21601;SDS011;10963;50.934;4.668;2022-10-22T01:48:44;8.23;;;3.93;;
21601;SDS011;10963;50.934;4.668;2022-10-22T02:07:45;8.73;;;3.33;;
21601;SDS011;10963;50.934;4.668;2022-10-22T02:10:14;10.33;;;3.60;;
21601;SDS011;10963;50.934;4.668;2022-10-22T02:12:43;11.20;;;3.20;;
21601;SDS011;10963;50.934;4.668;2022-10-22T02:15:16;10.80;;;3.13;;
21601;SDS011;10963;50.934;4.668;2022-10-22T02:17:46;8.40;;;3.30;;
21601;SDS011;10963;50.934;4.668;2022-10-22T02:20:20;11.43;;;3.37;;
21601;SDS011;10963;50.934;4.668;2022-10-22T02:22:50;13.87;;;3.70;;
21601;SDS011;10963;50.934;4.668;2022-10-22T02:25:19;10.87;;;3.53;;
21601;SDS011;10963;50.934;4.668;2022-10-22T02:27:48;7.20;;;3.07;;
21601;SDS011;10963;50.934;4.668;2022-10-22T02:30:25;10.63;;;3.50;;
21601;SDS011;10963;50.934;4.668;2022-10-22T02:35:25;14.20;;;3.80;;
21601;SDS011;10963;50.934;4.668;2022-10-22T02:37:57;10.50;;;3.90;;
21601;SDS011;10963;50.934;4.668;2022-10-22T02:40:26;10.33;;;3.43;;
21601;SDS011;10963;50.934;4.668;2022-10-22T02:42:57;12.53;;;3.13;;
21601;SDS011;10963;50.934;4.668;2022-10-22T02:45:23;8.17;;;3.80;;
21601;SDS011;10963;50.934;4.668;2022-10-22T02:47:49;7.73;;;3.33;;
21601;SDS011;10963;50.934;4.668;2022-10-22T02:50:14;16.07;;;3.10;;
21601;SDS011;10963;50.934;4.668;2022-10-22T02:52:40;12.47;;;3.27;;
21601;SDS011;10963;50.934;4.668;2022-10-22T02:55:06;8.30;;;3.07;;
21601;SDS011;10963;50.934;4.668;2022-10-22T02:57:35;7.77;;;3.17;;
21601;SDS011;10963;50.934;4.668;2022-10-22T03:00:01;7.90;;;2.87;;
21601;SDS011;10963;50.934;4.668;2022-10-22T03:02:26;6.50;;;2.87;;
21601;SDS011;10963;50.934;4.668;2022-10-22T03:04:52;6.33;;;3.27;;
21601;SDS011;10963;50.934;4.668;2022-10-22T03:07:18;12.00;;;3.83;;
21601;SDS011;10963;50.934;4.668;2022-10-22T03:09:43;8.93;;;3.00;;
21601;SDS011;10963;50.934;4.668;2022-10-22T03:12:09;10.17;;;2.80;;
21601;SDS011;10963;50.934;4.668;2022-10-22T03:14:35;12.60;;;3.10;;
21601;SDS011;10963;50.934;4.668;2022-10-22T03:17:00;8.70;;;3.10;;
21601;SDS011;10963;50.934;4.668;2022-10-22T03:19:26;8.37;;;3.50;;
21601;SDS011;10963;50.934;4.668;2022-10-22T03:21:52;15.40;;;3.63;;
21601;SDS011;10963;50.934;4.668;2022-10-22T03:24:24;7.50;;;3.17;;
21601;SDS011;10963;50.934;4.668;2022-10-22T03:27:02;14.97;;;3.60;;
21601;SDS011;10963;50.934;4.668;2022-10-22T03:29:29;10.03;;;3.37;;
21601;SDS011;10963;50.934;4.668;2022-10-22T03:31:58;5.90;;;3.00;;
21601;SDS011;10963;50.934;4.668;2022-10-22T03:34:23;9.70;;;3.57;;
21601;SDS011;10963;50.934;4.668;2022-10-22T03:36:50;7.60;;;3.23;;
21601;SDS011;10963;50.934;4.668;2022-10-22T03:39:19;10.47;;;3.50;;
21601;SDS011;10963;50.934;4.668;2022-10-22T03:41:46;10.83;;;3.17;;
21601;SDS011;10963;50.934;4.668;2022-10-22T03:44:13;9.43;;;3.20;;
21601;SDS011;10963;50.934;4.668;2022-10-22T03:46:40;9.63;;;3.27;;
21601;SDS011;10963;50.934;4.668;2022-10-22T03:49:08;10.17;;;3.77;;
21601;SDS011;10963;50.934;4.668;2022-10-22T03:51:34;13.87;;;3.70;;
21601;SDS011;10963;50.934;4.668;2022-10-22T03:54:00;12.50;;;3.23;;
21601;SDS011;10963;50.934;4.668;2022-10-22T03:56:27;9.13;;;2.93;;
21601;SDS011;10963;50.934;4.668;2022-10-22T03:58:54;5.60;;;3.00;;
21601;SDS011;10963;50.934;4.668;2022-10-22T04:01:21;9.23;;;2.73;;
21601;SDS011;10963;50.934;4.668;2022-10-22T04:03:48;11.20;;;3.37;;
21601;SDS011;10963;50.934;4.668;2022-10-22T04:06:14;8.43;;;3.00;;
21601;SDS011;10963;50.934;4.668;2022-10-22T04:08:41;7.80;;;3.17;;
21601;SDS011;10963;50.934;4.668;2022-10-22T04:11:08;8.50;;;3.73;;
21601;SDS011;10963;50.934;4.668;2022-10-22T04:13:34;10.00;;;3.00;;
21601;SDS011;10963;50.934;4.668;2022-10-22T04:16:07;10.77;;;2.97;;
21601;SDS011;10963;50.934;4.668;2022-10-22T04:18:42;10.63;;;2.97;;
21601;SDS011;10963;50.934;4.668;2022-10-22T04:21:12;11.13;;;2.97;;
21601;SDS011;10963;50.934;4.668;2022-10-22T04:23:44;8.27;;;2.83;;
21601;SDS011;10963;50.934;4.668;2022-10-22T04:26:16;8.77;;;2.80;;
21601;SDS011;10963;50.934;4.668;2022-10-22T04:28:43;10.30;;;2.57;;
21601;SDS011;10963;50.934;4.668;2022-10-22T04:31:11;7.33;;;2.90;;
21601;SDS011;10963;50.934;4.668;2022-10-22T04:33:42;7.27;;;2.20;;
21601;SDS011;10963;50.934;4.668;2022-10-22T04:36:15;9.73;;;2.27;;
21601;SDS011;10963;50.934;4.668;2022-10-22T04:38:45;8.23;;;2.80;;
21601;SDS011;10963;50.934;4.668;2022-10-22T04:41:22;11.77;;;2.37;;
21601;SDS011;10963;50.934;4.668;2022-10-22T04:43:52;8.20;;;2.67;;
21601;SDS011;10963;50.934;4.668;2022-10-22T04:46:19;10.23;;;2.70;;
21601;SDS011;10963;50.934;4.668;2022-10-22T04:48:45;7.80;;;2.70;;
21601;SDS011;10963;50.934;4.668;2022-10-22T04:51:15;12.43;;;2.43;;
21601;SDS011;10963;50.934;4.668;2022-10-22T04:53:45;10.67;;;2.57;;
21601;SDS011;10963;50.934;4.668;2022-10-22T04:58:41;11.53;;;2.23;;
21601;SDS011;10963;50.934;4.668;2022-10-22T05:01:09;9.33;;;2.43;;
21601;SDS011;10963;50.934;4.668;2022-10-22T05:03:35;9.70;;;2.30;;
21601;SDS011;10963;50.934;4.668;2022-10-22T05:06:00;5.03;;;2.10;;
21601;SDS011;10963;50.934;4.668;2022-10-22T05:08:28;8.57;;;2.90;;
21601;SDS011;10963;50.934;4.668;2022-10-22T05:10:55;10.00;;;2.23;;
21601;SDS011;10963;50.934;4.668;2022-10-22T05:13:20;11.03;;;2.40;;
21601;SDS011;10963;50.934;4.668;2022-10-22T05:15:46;10.47;;;2.87;;
21601;SDS011;10963;50.934;4.668;2022-10-22T05:18:12;11.80;;;2.30;;
21601;SDS011;10963;50.934;4.668;2022-10-22T05:20:38;7.77;;;2.50;;
21601;SDS011;10963;50.934;4.668;2022-10-22T05:23:07;13.27;;;3.40;;
21601;SDS011;10963;50.934;4.668;2022-10-22T05:25:37;10.67;;;2.97;;
21601;SDS011;10963;50.934;4.668;2022-10-22T05:28:03;6.10;;;2.13;;
21601;SDS011;10963;50.934;4.668;2022-10-22T05:30:30;7.40;;;2.10;;
21601;SDS011;10963;50.934;4.668;2022-10-22T05:32:55;4.60;;;1.80;;
21601;SDS011;10963;50.934;4.668;2022-10-22T05:35:21;6.73;;;2.27;;
21601;SDS011;10963;50.934;4.668;2022-10-22T05:37:47;8.30;;;2.27;;
21601;SDS011;10963;50.934;4.668;2022-10-22T05:40:15;9.03;;;2.17;;
21601;SDS011;10963;50.934;4.668;2022-10-22T05:42:41;6.37;;;2.00;;
21601;SDS011;10963;50.934;4.668;2022-10-22T05:45:08;9.83;;;2.10;;
21601;SDS011;10963;50.934;4.668;2022-10-22T05:47:35;7.90;;;1.93;;
21601;SDS011;10963;50.934;4.668;2022-10-22T05:50:01;5.83;;;1.77;;
21601;SDS011;10963;50.934;4.668;2022-10-22T05:52:27;9.63;;;2.40;;
21601;SDS011;10963;50.934;4.668;2022-10-22T05:54:55;8.77;;;2.30;;
21601;SDS011;10963;50.934;4.668;2022-10-22T05:57:26;14.30;;;2.53;;
21601;SDS011;10963;50.934;4.668;2022-10-22T05:59:58;9.97;;;2.10;;
21601;SDS011;10963;50.934;4.668;2022-10-22T06:02:25;8.77;;;2.37;;
21601;SDS011;10963;50.934;4.668;2022-10-22T06:04:50;8.50;;;2.10;;
21601;SDS011;10963;50.934;4.668;2022-10-22T06:07:19;11.00;;;2.13;;
21601;SDS011;10963;50.934;4.668;2022-10-22T06:09:45;13.40;;;3.13;;
21601;SDS011;10963;50.934;4.668;2022-10-22T06:12:14;9.50;;;1.90;;
21601;SDS011;10963;50.934;4.668;2022-10-22T06:14:40;8.60;;;2.00;;
21601;SDS011;10963;50.934;4.668;2022-10-22T06:17:08;7.23;;;1.93;;
21601;SDS011;10963;50.934;4.668;2022-10-22T06:19:36;8.40;;;2.50;;
21601;SDS011;10963;50.934;4.668;2022-10-22T06:22:04;10.40;;;2.20;;
21601;SDS011;10963;50.934;4.668;2022-10-22T06:24:31;8.17;;;2.37;;
21601;SDS011;10963;50.934;4.668;2022-10-22T06:27:00;5.07;;;2.10;;
21601;SDS011;10963;50.934;4.668;2022-10-22T06:29:25;6.07;;;1.93;;
21601;SDS011;10963;50.934;4.668;2022-10-22T06:31:51;8.57;;;2.03;;
21601;SDS011;10963;50.934;4.668;2022-10-22T06:34:17;7.33;;;2.37;;
21601;SDS011;10963;50.934;4.668;2022-10-22T06:36:43;9.47;;;1.70;;
21601;SDS011;10963;50.934;4.668;2022-10-22T06:39:13;10.53;;;2.30;;
21601;SDS011;10963;50.934;4.668;2022-10-22T06:41:42;11.10;;;2.07;;
21601;SDS011;10963;50.934;4.668;2022-10-22T06:44:12;8.23;;;1.83;;
21601;SDS011;10963;50.934;4.668;2022-10-22T06:46:39;8.20;;;1.63;;
21601;SDS011;10963;50.934;4.668;2022-10-22T06:49:09;5.43;;;1.93;;
21601;SDS011;10963;50.934;4.668;2022-10-22T06:51:38;11.57;;;1.80;;
21601;SDS011;10963;50.934;4.668;2022-10-22T06:54:06;8.30;;;1.83;;
21601;SDS011;10963;50.934;4.668;2022-10-22T06:56:32;8.43;;;2.00;;
21601;SDS011;10963;50.934;4.668;2022-10-22T06:58:59;10.03;;;1.90;;
21601;SDS011;10963;50.934;4.668;2022-10-22T07:01:29;7.47;;;1.63;;
21601;SDS011;10963;50.934;4.668;2022-10-22T07:03:56;11.50;;;2.03;;
21601;SDS011;10963;50.934;4.668;2022-10-22T07:06:25;3.90;;;1.50;;
21601;SDS011;10963;50.934;4.668;2022-10-22T07:08:54;8.30;;;1.87;;
21601;SDS011;10963;50.934;4.668;2022-10-22T07:11:22;10.53;;;1.90;;
21601;SDS011;10963;50.934;4.668;2022-10-22T07:13:50;13.80;;;1.90;;
21601;SDS011;10963;50.934;4.668;2022-10-22T07:16:17;9.87;;;2.17;;
21601;SDS011;10963;50.934;4.668;2022-10-22T07:18:44;7.00;;;1.70;;
21601;SDS011;10963;50.934;4.668;2022-10-22T07:21:14;8.87;;;1.80;;
21601;SDS011;10963;50.934;4.668;2022-10-22T07:23:41;10.77;;;1.60;;
21601;SDS011;10963;50.934;4.668;2022-10-22T07:26:08;4.23;;;1.47;;
21601;SDS011;10963;50.934;4.668;2022-10-22T07:28:38;9.93;;;1.73;;
21601;SDS011;10963;50.934;4.668;2022-10-22T07:31:08;7.53;;;1.83;;
21601;SDS011;10963;50.934;4.668;2022-10-22T07:33:38;10.50;;;1.63;;
21601;SDS011;10963;50.934;4.668;2022-10-22T07:36:10;6.70;;;1.60;;
21601;SDS011;10963;50.934;4.668;2022-10-22T07:38:41;6.73;;;1.70;;
21601;SDS011;10963;50.934;4.668;2022-10-22T07:41:14;10.00;;;1.80;;
21601;SDS011;10963;50.934;4.668;2022-10-22T07:43:40;6.80;;;1.70;;
21601;SDS011;10963;50.934;4.668;2022-10-22T07:46:09;7.03;;;1.77;;
21601;SDS011;10963;50.934;4.668;2022-10-22T07:48:37;9.70;;;1.83;;
21601;SDS011;10963;50.934;4.668;2022-10-22T07:51:03;6.30;;;1.97;;
21601;SDS011;10963;50.934;4.668;2022-10-22T07:53:32;4.73;;;1.50;;
21601;SDS011;10963;50.934;4.668;2022-10-22T07:55:58;7.10;;;1.43;;
21601;SDS011;10963;50.934;4.668;2022-10-22T07:58:24;9.87;;;1.57;;
21601;SDS011;10963;50.934;4.668;2022-10-22T08:00:58;7.10;;;1.77;;
21601;SDS011;10963;50.934;4.668;2022-10-22T08:03:32;6.43;;;1.67;;
21601;SDS011;10963;50.934;4.668;2022-10-22T08:06:00;3.67;;;1.30;;
21601;SDS011;10963;50.934;4.668;2022-10-22T08:08:26;4.53;;;1.80;;
21601;SDS011;10963;50.934;4.668;2022-10-22T08:10:55;9.63;;;2.10;;
21601;SDS011;10963;50.934;4.668;2022-10-22T08:13:23;8.63;;;1.67;;
21601;SDS011;10963;50.934;4.668;2022-10-22T08:15:54;6.10;;;1.70;;
21601;SDS011;10963;50.934;4.668;2022-10-22T08:18:22;13.43;;;2.27;;
21601;SDS011;10963;50.934;4.668;2022-10-22T08:20:47;7.07;;;1.63;;
21601;SDS011;10963;50.934;4.668;2022-10-22T08:23:15;4.90;;;1.53;;
21601;SDS011;10963;50.934;4.668;2022-10-22T08:25:41;6.47;;;2.20;;
21601;SDS011;10963;50.934;4.668;2022-10-22T08:28:07;6.90;;;1.43;;
21601;SDS011;10963;50.934;4.668;2022-10-22T08:30:33;8.77;;;1.60;;
21601;SDS011;10963;50.934;4.668;2022-10-22T08:33:04;8.77;;;1.77;;
21601;SDS011;10963;50.934;4.668;2022-10-22T08:35:30;5.60;;;1.80;;
21601;SDS011;10963;50.934;4.668;2022-10-22T08:37:59;8.33;;;1.60;;
21601;SDS011;10963;50.934;4.668;2022-10-22T08:40:27;10.47;;;3.00;;
21601;SDS011;10963;50.934;4.668;2022-10-22T08:51:15;5.43;;;1.30;;
21601;SDS011;10963;50.934;4.668;2022-10-22T08:53:49;6.07;;;2.27;;
21601;SDS011;10963;50.934;4.668;2022-10-22T08:56:43;3.63;;;1.43;;
21601;SDS011;10963;50.934;4.668;2022-10-22T08:59:19;7.37;;;2.23;;
21601;SDS011;10963;50.934;4.668;2022-10-22T09:01:57;7.27;;;2.10;;
21601;SDS011;10963;50.934;4.668;2022-10-22T09:04:25;9.17;;;1.90;;
21601;SDS011;10963;50.934;4.668;2022-10-22T09:06:57;8.20;;;2.37;;
21601;SDS011;10963;50.934;4.668;2022-10-22T09:09:25;9.33;;;2.40;;
21601;SDS011;10963;50.934;4.668;2022-10-22T09:11:56;8.00;;;1.63;;
21601;SDS011;10963;50.934;4.668;2022-10-22T09:14:25;9.97;;;1.80;;
21601;SDS011;10963;50.934;4.668;2022-10-22T09:25:41;10.07;;;3.07;;
21601;SDS011;10963;50.934;4.668;2022-10-22T09:28:08;10.17;;;1.90;;
21601;SDS011;10963;50.934;4.668;2022-10-22T09:30:36;8.10;;;1.90;;
21601;SDS011;10963;50.934;4.668;2022-10-22T09:35:54;10.47;;;2.20;;
21601;SDS011;10963;50.934;4.668;2022-10-22T09:38:28;7.70;;;1.80;;
21601;SDS011;10963;50.934;4.668;2022-10-22T09:40:56;7.50;;;2.57;;
21601;SDS011;10963;50.934;4.668;2022-10-22T09:43:30;6.40;;;1.63;;
21601;SDS011;10963;50.934;4.668;2022-10-22T09:46:01;9.07;;;1.80;;
21601;SDS011;10963;50.934;4.668;2022-10-22T09:48:33;8.20;;;1.60;;
21601;SDS011;10963;50.934;4.668;2022-10-22T09:51:14;10.77;;;2.00;;
21601;SDS011;10963;50.934;4.668;2022-10-22T09:53:41;18.60;;;8.57;;
21601;SDS011;10963;50.934;4.668;2022-10-22T09:56:16;8.07;;;2.00;;
21601;SDS011;10963;50.934;4.668;2022-10-22T09:58:49;10.77;;;2.70;;
21601;SDS011;10963;50.934;4.668;2022-10-22T10:01:21;8.30;;;1.70;;
21601;SDS011;10963;50.934;4.668;2022-10-22T10:04:01;11.07;;;2.10;;
21601;SDS011;10963;50.934;4.668;2022-10-22T10:06:33;9.63;;;2.57;;
21601;SDS011;10963;50.934;4.668;2022-10-22T10:09:14;8.83;;;2.80;;
21601;SDS011;10963;50.934;4.668;2022-10-22T10:11:47;7.13;;;1.73;;
21601;SDS011;10963;50.934;4.668;2022-10-22T10:14:23;7.27;;;1.60;;
21601;SDS011;10963;50.934;4.668;2022-10-22T10:16:56;12.67;;;1.60;;
21601;SDS011;10963;50.934;4.668;2022-10-22T10:20:12;10.07;;;1.60;;
21601;SDS011;10963;50.934;4.668;2022-10-22T10:22:36;6.60;;;1.80;;
21601;SDS011;10963;50.934;4.668;2022-10-22T10:25:30;15.93;;;1.90;;
21601;SDS011;10963;50.934;4.668;2022-10-22T10:38:59;9.07;;;1.60;;
21601;SDS011;10963;50.934;4.668;2022-10-22T10:41:38;5.33;;;1.43;;
21601;SDS011;10963;50.934;4.668;2022-10-22T10:49:19;7.60;;;1.80;;
21601;SDS011;10963;50.934;4.668;2022-10-22T11:00:15;11.77;;;1.63;;
21601;SDS011;10963;50.934;4.668;2022-10-22T11:02:46;9.30;;;1.73;;
21601;SDS011;10963;50.934;4.668;2022-10-22T11:11:17;5.23;;;1.97;;
21601;SDS011;10963;50.934;4.668;2022-10-22T11:16:45;10.37;;;1.80;;
21601;SDS011;10963;50.934;4.668;2022-10-22T11:22:08;5.13;;;1.40;;
21601;SDS011;10963;50.934;4.668;2022-10-22T11:24:55;6.40;;;1.40;;
21601;SDS011;10963;50.934;4.668;2022-10-22T11:30:23;8.87;;;1.90;;
21601;SDS011;10963;50.934;4.668;2022-10-22T11:32:54;7.63;;;1.33;;
21601;SDS011;10963;50.934;4.668;2022-10-22T11:35:23;2.70;;;1.67;;
21601;SDS011;10963;50.934;4.668;2022-10-22T11:37:55;5.73;;;1.60;;
21601;SDS011;10963;50.934;4.668;2022-10-22T11:42:56;7.40;;;1.53;;
21601;SDS011;10963;50.934;4.668;2022-10-22T11:45:33;5.43;;;1.60;;
21601;SDS011;10963;50.934;4.668;2022-10-22T12:03:40;5.60;;;1.90;;
21601;SDS011;10963;50.934;4.668;2022-10-22T12:08:43;6.07;;;1.37;;
21601;SDS011;10963;50.934;4.668;2022-10-22T12:11:20;5.27;;;1.30;;
21601;SDS011;10963;50.934;4.668;2022-10-22T12:13:57;7.10;;;1.50;;
21601;SDS011;10963;50.934;4.668;2022-10-22T12:16:34;9.03;;;1.60;;
21601;SDS011;10963;50.934;4.668;2022-10-22T12:21:34;9.53;;;1.50;;
21601;SDS011;10963;50.934;4.668;2022-10-22T12:24:01;7.73;;;1.33;;
21601;SDS011;10963;50.934;4.668;2022-10-22T12:26:29;14.30;;;1.70;;
21601;SDS011;10963;50.934;4.668;2022-10-22T12:28:59;9.97;;;1.67;;
21601;SDS011;10963;50.934;4.668;2022-10-22T12:31:26;8.97;;;1.90;;
21601;SDS011;10963;50.934;4.668;2022-10-22T12:33:57;6.80;;;1.53;;
21601;SDS011;10963;50.934;4.668;2022-10-22T12:36:26;5.73;;;1.40;;
21601;SDS011;10963;50.934;4.668;2022-10-22T12:39:02;12.57;;;1.40;;
21601;SDS011;10963;50.934;4.668;2022-10-22T12:41:35;3.93;;;1.30;;
21601;SDS011;10963;50.934;4.668;2022-10-22T12:44:03;7.13;;;1.40;;
21601;SDS011;10963;50.934;4.668;2022-10-22T12:46:36;8.73;;;1.67;;
21601;SDS011;10963;50.934;4.668;2022-10-22T12:49:04;4.80;;;1.40;;
21601;SDS011;10963;50.934;4.668;2022-10-22T12:51:33;7.90;;;1.47;;
21601;SDS011;10963;50.934;4.668;2022-10-22T12:54:05;4.90;;;1.30;;
21601;SDS011;10963;50.934;4.668;2022-10-22T12:56:36;4.07;;;1.40;;
21601;SDS011;10963;50.934;4.668;2022-10-22T12:59:36;11.40;;;1.30;;
21601;SDS011;10963;50.934;4.668;2022-10-22T13:02:03;6.00;;;1.60;;
21601;SDS011;10963;50.934;4.668;2022-10-22T13:07:45;4.97;;;1.40;;
21601;SDS011;10963;50.934;4.668;2022-10-22T13:10:26;5.87;;;1.70;;
21601;SDS011;10963;50.934;4.668;2022-10-22T13:12:59;5.00;;;1.40;;
21601;SDS011;10963;50.934;4.668;2022-10-22T13:20:49;9.00;;;1.70;;
21601;SDS011;10963;50.934;4.668;2022-10-22T13:23:27;6.20;;;1.53;;
21601;SDS011;10963;50.934;4.668;2022-10-22T13:26:01;6.20;;;1.60;;
21601;SDS011;10963;50.934;4.668;2022-10-22T13:28:30;7.07;;;1.50;;
21601;SDS011;10963;50.934;4.668;2022-10-22T13:31:00;5.07;;;1.40;;
21601;SDS011;10963;50.934;4.668;2022-10-22T13:35:59;4.63;;;1.23;;
21601;SDS011;10963;50.934;4.668;2022-10-22T13:38:26;5.07;;;1.43;;
21601;SDS011;10963;50.934;4.668;2022-10-22T13:40:55;7.07;;;1.80;;
21601;SDS011;10963;50.934;4.668;2022-10-22T13:43:24;6.03;;;1.40;;
21601;SDS011;10963;50.934;4.668;2022-10-22T13:45:53;5.10;;;1.40;;
21601;SDS011;10963;50.934;4.668;2022-10-22T13:48:21;5.30;;;1.30;;
21601;SDS011;10963;50.934;4.668;2022-10-22T13:50:50;5.47;;;1.70;;
21601;SDS011;10963;50.934;4.668;2022-10-22T13:53:20;5.13;;;1.60;;
21601;SDS011;10963;50.934;4.668;2022-10-22T13:55:48;3.97;;;1.50;;
21601;SDS011;10963;50.934;4.668;2022-10-22T13:58:18;4.63;;;1.13;;
21601;SDS011;10963;50.934;4.668;2022-10-22T14:00:58;4.90;;;1.20;;
21601;SDS011;10963;50.934;4.668;2022-10-22T14:03:26;4.97;;;1.27;;
21601;SDS011;10963;50.934;4.668;2022-10-22T14:05:57;6.97;;;1.53;;
21601;SDS011;10963;50.934;4.668;2022-10-22T14:08:23;9.50;;;1.63;;
21601;SDS011;10963;50.934;4.668;2022-10-22T14:10:50;7.10;;;1.23;;
21601;SDS011;10963;50.934;4.668;2022-10-22T14:13:17;4.47;;;1.23;;
21601;SDS011;10963;50.934;4.668;2022-10-22T14:15:44;8.33;;;1.40;;
21601;SDS011;10963;50.934;4.668;2022-10-22T14:18:20;3.33;;;1.20;;
21601;SDS011;10963;50.934;4.668;2022-10-22T14:20:57;4.77;;;1.63;;
21601;SDS011;10963;50.934;4.668;2022-10-22T14:23:28;4.60;;;1.40;;
21601;SDS011;10963;50.934;4.668;2022-10-22T14:25:56;4.63;;;1.57;;
21601;SDS011;10963;50.934;4.668;2022-10-22T14:28:23;6.23;;;1.30;;
21601;SDS011;10963;50.934;4.668;2022-10-22T14:30:52;5.63;;;1.70;;
21601;SDS011;10963;50.934;4.668;2022-10-22T14:33:25;9.03;;;1.50;;
21601;SDS011;10963;50.934;4.668;2022-10-22T14:35:53;4.70;;;1.47;;
21601;SDS011;10963;50.934;4.668;2022-10-22T14:38:19;5.47;;;1.40;;
21601;SDS011;10963;50.934;4.668;2022-10-22T14:40:47;4.90;;;1.43;;
21601;SDS011;10963;50.934;4.668;2022-10-22T14:43:20;9.10;;;1.90;;
21601;SDS011;10963;50.934;4.668;2022-10-22T14:45:51;3.73;;;1.53;;
21601;SDS011;10963;50.934;4.668;2022-10-22T14:48:16;7.13;;;1.50;;
21601;SDS011;10963;50.934;4.668;2022-10-22T14:50:43;4.27;;;1.37;;
21601;SDS011;10963;50.934;4.668;2022-10-22T14:53:13;6.27;;;2.00;;
21601;SDS011;10963;50.934;4.668;2022-10-22T14:55:41;4.90;;;1.37;;
21601;SDS011;10963;50.934;4.668;2022-10-22T14:58:11;3.37;;;1.33;;
21601;SDS011;10963;50.934;4.668;2022-10-22T15:00:36;5.70;;;1.40;;
21601;SDS011;10963;50.934;4.668;2022-10-22T15:03:06;7.73;;;1.53;;
21601;SDS011;10963;50.934;4.668;2022-10-22T15:05:32;5.50;;;1.60;;
21601;SDS011;10963;50.934;4.668;2022-10-22T15:08:00;3.97;;;1.23;;
21601;SDS011;10963;50.934;4.668;2022-10-22T15:10:26;5.93;;;1.40;;
21601;SDS011;10963;50.934;4.668;2022-10-22T15:12:54;5.63;;;1.57;;
21601;SDS011;10963;50.934;4.668;2022-10-22T15:15:22;5.17;;;1.30;;
21601;SDS011;10963;50.934;4.668;2022-10-22T15:17:48;8.17;;;1.40;;
21601;SDS011;10963;50.934;4.668;2022-10-22T15:20:14;5.97;;;1.50;;
21601;SDS011;10963;50.934;4.668;2022-10-22T15:22:42;6.47;;;1.20;;
21601;SDS011;10963;50.934;4.668;2022-10-22T15:25:09;8.80;;;1.60;;
21601;SDS011;10963;50.934;4.668;2022-10-22T15:27:37;6.63;;;1.63;;
21601;SDS011;10963;50.934;4.668;2022-10-22T15:30:04;6.97;;;1.40;;
21601;SDS011;10963;50.934;4.668;2022-10-22T15:32:33;4.83;;;1.10;;
21601;SDS011;10963;50.934;4.668;2022-10-22T15:35:01;7.93;;;1.80;;
21601;SDS011;10963;50.934;4.668;2022-10-22T15:37:27;5.30;;;1.30;;
21601;SDS011;10963;50.934;4.668;2022-10-22T15:39:52;3.40;;;1.50;;
21601;SDS011;10963;50.934;4.668;2022-10-22T15:42:18;7.33;;;1.53;;
21601;SDS011;10963;50.934;4.668;2022-10-22T15:44:44;7.03;;;1.30;;
21601;SDS011;10963;50.934;4.668;2022-10-22T15:47:17;9.10;;;1.67;;
21601;SDS011;10963;50.934;4.668;2022-10-22T15:49:46;8.20;;;1.63;;
21601;SDS011;10963;50.934;4.668;2022-10-22T15:52:12;13.80;;;2.00;;
21601;SDS011;10963;50.934;4.668;2022-10-22T15:54:40;14.23;;;7.27;;
21601;SDS011;10963;50.934;4.668;2022-10-22T15:57:10;28.13;;;10.77;;
21601;SDS011;10963;50.934;4.668;2022-10-22T15:59:36;14.33;;;7.83;;
21601;SDS011;10963;50.934;4.668;2022-10-22T16:02:01;78.10;;;42.43;;
21601;SDS011;10963;50.934;4.668;2022-10-22T16:04:27;55.23;;;26.07;;
21601;SDS011;10963;50.934;4.668;2022-10-22T16:06:58;48.87;;;25.30;;
21601;SDS011;10963;50.934;4.668;2022-10-22T16:09:24;67.23;;;36.33;;
21601;SDS011;10963;50.934;4.668;2022-10-22T16:11:52;45.50;;;21.27;;
21601;SDS011;10963;50.934;4.668;2022-10-22T16:14:19;28.10;;;13.33;;
21601;SDS011;10963;50.934;4.668;2022-10-22T16:16:48;15.63;;;7.60;;
21601;SDS011;10963;50.934;4.668;2022-10-22T16:19:16;13.57;;;4.47;;
21601;SDS011;10963;50.934;4.668;2022-10-22T16:21:44;10.13;;;3.20;;
21601;SDS011;10963;50.934;4.668;2022-10-22T16:24:14;8.17;;;2.53;;
21601;SDS011;10963;50.934;4.668;2022-10-22T16:26:41;10.53;;;3.63;;
21601;SDS011;10963;50.934;4.668;2022-10-22T16:29:07;7.03;;;2.50;;
21601;SDS011;10963;50.934;4.668;2022-10-22T16:31:37;6.33;;;2.53;;
21601;SDS011;10963;50.934;4.668;2022-10-22T16:34:04;5.53;;;2.63;;
21601;SDS011;10963;50.934;4.668;2022-10-22T16:36:30;15.47;;;3.70;;
21601;SDS011;10963;50.934;4.668;2022-10-22T16:38:56;14.30;;;3.77;;
21601;SDS011;10963;50.934;4.668;2022-10-22T16:41:22;15.47;;;4.73;;
21601;SDS011;10963;50.934;4.668;2022-10-22T16:43:50;10.53;;;5.13;;
21601;SDS011;10963;50.934;4.668;2022-10-22T16:46:19;14.57;;;4.73;;
21601;SDS011;10963;50.934;4.668;2022-10-22T16:48:46;32.30;;;11.67;;
21601;SDS011;10963;50.934;4.668;2022-10-22T16:51:15;34.17;;;11.00;;
21601;SDS011;10963;50.934;4.668;2022-10-22T16:53:42;23.07;;;9.67;;
21601;SDS011;10963;50.934;4.668;2022-10-22T16:56:11;54.73;;;23.07;;
21601;SDS011;10963;50.934;4.668;2022-10-22T16:58:42;38.93;;;16.43;;
21601;SDS011;10963;50.934;4.668;2022-10-22T17:01:09;163.50;;;87.33;;
21601;SDS011;10963;50.934;4.668;2022-10-22T17:03:36;143.47;;;64.60;;
21601;SDS011;10963;50.934;4.668;2022-10-22T17:06:02;108.00;;;49.73;;
21601;SDS011;10963;50.934;4.668;2022-10-22T17:08:35;19.97;;;7.87;;